Sainte-Agathe-Des-Monts, Canada
Current Conditions -  °F | °C
As of 3:00 PM on Monday 24 Nov 2014 (Local Time) from CYMX Reporting Station
Broken Clouds Broken Clouds  
Wind Chill: 64°   Ceiling: 8000
Heat Index: 64°   Visibility: 45mi
Dew Point: 52°   Wind: 14mph
Humidity: 64%   Direction: 210°SSW
Pressure: 29.27"   Gusts: 21mph
Location:  46.03°N, 74.28°W
Report Text: CYMX 242000Z 21012G18KT 45SM SCT050 BKN080 18/11 A2927 RMK SC4AC3 SLP913 DENSITY ALT 1400FT
Loading
Personal Weather Stations






























Interactive Weather Map New forecast layout! Learn more

10-Day Weather Forecast

Advertisements
Track Severe Weather on mobile